This is the latest recevied weather packets stored in our database for station/object 1NW106. If no packets are shown the sender has not sent any weather packets the latest 10 day(s).
| Time | Temp. | Humidity | Pressure | Rain* | Wind** | Luminosity | Snow |
|---|---|---|---|---|---|---|---|
| 1787375364 | 27.22° C | 87% | 1009.7 hPa | 0 mm | - | - | - |
| 1787374764 | 27.22° C | 89% | 1009.7 hPa | 0 mm | - | - | - |
| 1787374165 | 26.67° C | 92% | 1009.4 hPa | 0 mm | - | - | - |
| 1787373564 | 26.67° C | 91% | 1009.5 hPa | 0 mm | - | - | - |
| 1787372964 | 26.67° C | 90% | 1009.6 hPa | 0 mm | - | - | - |
| 1787372364 | 26.67° C | 90% | 1009.7 hPa | 0 mm | - | - | - |
| 1787371764 | 26.67° C | 91% | 1009.6 hPa | 0 mm | - | - | - |
| 1787371164 | 26.67° C | 93% | 1009.5 hPa | 0 mm | - | - | - |
| 1787370564 | 26.67° C | 91% | 1009.7 hPa | 0 mm | - | - | - |
| 1787369964 | 26.67° C | 91% | 1009.6 hPa | 0 mm | - | - | - |
| 1787369364 | 27.22° C | 88% | 1010 hPa | 0 mm | - | - | - |
| 1787368764 | 27.22° C | 89% | 1009.7 hPa | 0 mm | - | - | - |
| 1787368164 | 27.22° C | 90% | 1009.7 hPa | 0 mm | - | - | - |
| 1787367564 | 27.22° C | 88% | 1009.9 hPa | 0 mm | - | - | - |
| 1787366964 | 27.22° C | 88% | 1010 hPa | 0 mm | - | - | - |
| 1787366364 | 27.22° C | 87% | 1009.9 hPa | 0 mm | - | - | - |
| 1787365764 | 27.22° C | 87% | 1010 hPa | 0 mm | - | - | - |
| 1787365164 | 27.78° C | 87% | 1010 hPa | 0 mm | - | - | - |
| 1787364564 | 26.67° C | 92% | 1009.3 hPa | 0 mm | - | - | - |
| 1787363964 | 26.11° C | 96% | 1008.6 hPa | 0 mm | - | - | - |
| 1787363364 | 26.11° C | 95% | 1008.8 hPa | 0 mm | - | - | - |
| 1787362764 | 26.11° C | 97% | 1008.5 hPa | 0 mm | - | - | - |
| 1787362164 | 26.11° C | 99% | 1007.9 hPa | 0 mm | - | - | - |
| 1787361564 | 25.56° C | 99% | 1007.8 hPa | 0 mm | - | - | - |
| 1787360964 | 25.56° C | 99% | 1007.1 hPa | 0 mm | - | - | - |
* Rain latest hour (hover to see other rain measurements)
** Current wind speed in m/s (hover to see current wind gust speed)